Volendam — PCHM — position and weather

sailwx.info

Track history (hours):
 
Tides and Currents Weather Stations Pressure Air Temp Water Temp Dewpoint Dewpoint Depression Visibility Wind Speed Wind Dir Waves Ship Positions

Volendam

Operator: Holland America Line

Last reported at 2017-Jul-20 19:00 UTC. Time now 2017-Jul-21 02:28 UTC.
Position N 53°00' W 129°12'.

Type: Ship. MMSI: 245968000.

Wind from 170 at 10 knots

Barometer 1018.8 mb
Air temperature 13.6 ° C
Visibility: greater than 10.8 NM
Dewpoint 12.0 ° C
Water temperature 16.1 ° C

Date/timePositionNaut miles runAvg speedWind from/ knotsBaromVisibWave heightAir tempDewpointWater temp
2017-Jul-20 19:00N 53°00' W 129°12'1614.8 170 / 101018.810.8 13.612.016.1
2017-Jul-20 17:53N 52°44' W 129°05'717.8
2017-Jul-20 17:30N 52°39' W 128°58'815.8
2017-Jul-20 17:00N 52°32' W 128°52'816.6
2017-Jul-20 16:31N 52°24' W 128°50'918.8
2017-Jul-20 16:00N 52°14' W 128°47'9551.1
2017-Jul-20 16:00N 52°06' W 128°42'2 3.7 330 / 51017.510.8 14.312.317.9
2017-Jul-20 15:30N 52°05' W 128°44'918.3
2017-Jul-20 15:00N 51°56' W 128°40'1918.6
2017-Jul-20 14:00N 51°38' W 128°32'3163.9
2017-Jul-20 14:00N 51°36' W 128°30'713.9 340 / 101018.010.8 14.312.317.4
2017-Jul-20 13:30N 51°29' W 128°29'918.2
2017-Jul-20 13:00N 51°21' W 128°25'5317.4
2017-Jul-20 13:00N 51°18' W 128°18'611.4 330 / 151018.610.8 14.512.517.7
2017-Jul-20 12:30N 51°13' W 128°19'918.6
2017-Jul-20 12:00N 51°07' W 128°06'918.7
2017-Jul-20 11:31N 51°02' W 127°54'1019.5
2017-Jul-20 11:00N 50°56' W 127°41'4253.6
2017-Jul-20 11:00N 50°54' W 127°36'612.0 270 / 181016.610.8 13.211.313.8
2017-Jul-20 10:30N 50°50' W 127°29'1019.2
2017-Jul-20 10:00N 50°47' W 127°15'5300.2
2017-Jul-20 10:00N 50°42' W 127°12'714.8 270 / 91016.610.8 13.211.313.8
2017-Jul-20 09:30N 50°43' W 127°01'918.2
2017-Jul-20 09:00N 50°39' W 126°48'816.0
2017-Jul-20 08:29N 50°32' W 126°41'816.9
2017-Jul-20 08:00N 50°30' W 126°28'917.9
2017-Jul-20 07:30N 50°29' W 126°14'1816.8
2017-Jul-20 06:27N 50°23' W 125°48'817.4
2017-Jul-20 05:59N 50°22' W 125°35'714.8
2017-Jul-20 05:30N 50°20' W 125°25'917.6
2017-Jul-20 05:00N 50°11' W 125°22'613.0
2017-Jul-20 04:30N 50°05' W 125°17'713.4
2017-Jul-20 04:01N 49°60' W 125°12'918.5
2017-Jul-20 03:31N 49°54' W 125°01'1020.2
2017-Jul-20 03:00N 49°47' W 124°49'1020.4
2017-Jul-20 02:30N 49°41' W 124°36'1020.7
2017-Jul-20 02:00N 49°34' W 124°24'1020.1
2017-Jul-20 01:30N 49°30' W 124°10'1020.6
2017-Jul-20 01:01N 49°26' W 123°56'2130.6
2017-Jul-20 01:00N 49°24' W 123°54'918.6 090 / 71014.610.8 19.214.020.9
2017-Jul-20 00:31N 49°23' W 123°40'1020.4
2017-Jul-20 00:01N 49°19' W 123°25'2105.9
2017-Jul-20 00:00N 49°18' W 123°24'918.4 190 / 31015.610.8 19.413.322.5
2017-Jul-19 23:30N 49°19' W 123°10'3 5.9
2017-Jul-19 23:00N 49°17' W 123°07'0 0.0
2017-Jul-19 22:30N 49°17' W 123°07'0 0.0
2017-Jul-19 22:00N 49°17' W 123°07'0 0.0
2017-Jul-19 21:30N 49°17' W 123°07'0 0.0
2017-Jul-19 20:57N 49°17' W 123°07'0 0.0
2017-Jul-19 20:30N 49°17' W 123°07'0 0.0
2017-Jul-19 20:00N 49°17' W 123°07'0 0.0
2017-Jul-19 19:30N 49°17' W 123°07'0 0.0
2017-Jul-19 19:00N 49°17' W 123°07'0 0.0
2017-Jul-19 18:30N 49°17' W 123°07'0 0.0
2017-Jul-19 18:00N 49°17' W 123°07'0 0.0
2017-Jul-19 17:30N 49°17' W 123°07'0 0.0
2017-Jul-19 17:00N 49°17' W 123°07'0 0.0
2017-Jul-19 16:30N 49°17' W 123°07'0 0.0
2017-Jul-19 16:00N 49°17' W 123°07'0 0.0
2017-Jul-19 15:30N 49°17' W 123°07'0 0.0
2017-Jul-19 15:00N 49°17' W 123°07'0 0.0
2017-Jul-19 14:30N 49°17' W 123°07'0 0.0
2017-Jul-19 14:00N 49°17' W 123°07'1 2.4
2017-Jul-19 13:30N 49°18' W 123°07'5 9.5
2017-Jul-19 13:00N 49°19' W 123°15'510.7
2017-Jul-19 12:30N 49°18' W 123°23'611.2
2017-Jul-19 12:00N 49°19' W 123°32'510.8
2017-Jul-19 11:30N 49°19' W 123°40'510.5
2017-Jul-19 11:00N 49°20' W 123°48'4443.9
2017-Jul-19 11:00N 49°18' W 123°42'1019.8 120 / 241016.010.8 18.413.716.0
2017-Jul-19 10:30N 49°22' W 123°56'510.7
2017-Jul-19 10:00N 49°23' W 124°04'5546.3
2017-Jul-19 10:00N 49°18' W 124°00'1019.0 110 / 81016.010.8 19.415.516.0
2017-Jul-19 09:29N 49°24' W 124°11'5 9.9
2017-Jul-19 09:00N 49°25' W 124°18'1136.5
2017-Jul-19 09:00N 49°24' W 124°18'612.0 060 / 71015.710.8 19.813.516.0
2017-Jul-19 08:30N 49°28' W 124°25'510.2
2017-Jul-19 08:00N 49°31' W 124°31'5 9.5
2017-Jul-19 07:30N 49°34' W 124°36'5 9.6
2017-Jul-19 07:00N 49°38' W 124°41'5 9.6
2017-Jul-19 06:30N 49°42' W 124°46'5 9.3
2017-Jul-19 06:00N 49°45' W 124°51'5 9.7
2017-Jul-19 05:30N 49°49' W 124°56'5 9.6
2017-Jul-19 05:00N 49°52' W 125°01'5 9.3
2017-Jul-19 04:30N 49°55' W 125°06'510.7
2017-Jul-19 04:01N 49°59' W 125°12'713.9
2017-Jul-19 03:30N 50°05' W 125°17'612.7
2017-Jul-19 03:00N 50°11' W 125°22'714.0
2017-Jul-19 02:30N 50°18' W 125°25'612.2
2017-Jul-19 02:00N 50°21' W 125°32'612.8
2017-Jul-19 01:30N 50°22' W 125°42'1614.3
2017-Jul-19 00:21N 50°28' W 126°06'513.9
2017-Jul-19 00:00N 50°24' W 126°12'5555.0 290 / 221015.410.8 20.513.713.1
2017-Jul-18 23:59N 50°29' W 126°15'714.1
2017-Jul-18 23:30N 50°30' W 126°25'713.5
2017-Jul-18 22:59N 50°31' W 126°36'612.3
2017-Jul-18 22:30N 50°35' W 126°42'713.7
2017-Jul-18 22:00N 50°39' W 126°51'917.2
2017-Jul-18 21:30N 50°43' W 127°03'917.8
2017-Jul-18 21:01N 50°47' W 127°15'2115.7
2017-Jul-18 21:00N 50°48' W 127°18'714.8 1018.010.8 13.812.714.3
2017-Jul-18 20:31N 50°50' W 127°29'917.6
2017-Jul-18 20:01N 50°55' W 127°40'918.0
2017-Jul-18 19:30N 51°01' W 127°51'918.2
2017-Jul-18 19:00N 51°06' W 128°03'917.4
2017-Jul-18 18:31N 51°11' W 128°15'918.0
2017-Jul-18 18:01N 51°18' W 128°23'1019.1
2017-Jul-18 17:31N 51°28' W 128°27'1019.4
2017-Jul-18 17:01N 51°37' W 128°31'1019.5
2017-Jul-18 16:31N 51°46' W 128°35'1019.5
2017-Jul-18 16:01N 51°55' W 128°43'166.8
2017-Jul-18 16:00N 51°54' W 128°42'1122.1 350 / 121019.010.8 14.013.015.7
2017-Jul-18 15:31N 52°02' W 128°53'918.8
2017-Jul-18 15:00N 52°06' W 129°07'8508.4
2017-Jul-18 15:00N 52°00' W 129°00'2625.9 350 / 121019.210.8 13.813.015.7
2017-Jul-18 14:00N 52°15' W 129°34'11792.3
2017-Jul-18 14:00N 52°06' W 129°24'2042.1 330 / 211020.510.8 14.013.015.7
2017-Jul-18 13:31N 52°23' W 129°42'815.2
2017-Jul-18 13:00N 52°30' W 129°48'3718.5 330 / 211020.510.8 14.013.015.7
2017-Jul-18 11:00N 53°00' W 130°24'3316.6 330 / 211021.010.8 13.513.015.7
2017-Jul-18 09:00N 53°30' W 130°48'135 7.5 320 / 201022.310.8 12.912.615.7
2017-Jul-17 15:00N 55°36' W 132°12'5911.8 070 / 51027.010.8 12.311.815.7
2017-Jul-17 10:00N 56°06' W 133°42'5212.9 180 / 31026.010.8 11.110.912.8
2017-Jul-17 06:00N 56°48' W 134°36'3618.1 160 / 251025.010.8 11.110.812.8
2017-Jul-17 04:00N 57°24' W 134°42'3618.1 210 / 161024.010.8 12.111.314.8
2017-Jul-17 02:00N 58°00' W 134°48'1418.3 100 / 171022.610.8 12.612.315.2
2017-Jul-17 01:14N 58°08' W 135°10'418.0
2017-Jul-17 01:00N 58°10' W 135°17'4382.8
2017-Jul-17 01:00N 58°06' W 135°12'1326.7 050 / 71022.510.8 12.612.115.2
2017-Jul-17 00:30N 58°14' W 135°31'917.9
2017-Jul-17 00:01N 58°18' W 135°46'815.7
2017-Jul-16 23:30N 58°23' W 135°58'510.3
2017-Jul-16 23:00N 58°28' W 136°02'917.4
2017-Jul-16 22:30N 58°36' W 136°05'917.5
2017-Jul-16 22:00N 58°43' W 136°15'2165.9
2017-Jul-16 22:00N 58°42' W 136°12'817.5 280 / 61021.010.8 10.0 9.516.7
2017-Jul-16 21:30N 58°48' W 136°24'713.9
2017-Jul-16 21:00N 58°52' W 136°34'1 0.2
2017-Jul-16 16:14N 58°52' W 136°36'415.3
2017-Jul-16 15:57N 58°50' W 136°29'613.0
2017-Jul-16 15:30N 58°46' W 136°20'714.2
2017-Jul-16 15:00N 58°41' W 136°11'917.3
2017-Jul-16 14:30N 58°33' W 136°03'815.9
2017-Jul-16 14:00N 58°25' W 135°59'611.6
2017-Jul-16 13:30N 58°20' W 135°56'815.0
2017-Jul-16 13:00N 58°18' W 135°42'815.5
2017-Jul-16 12:30N 58°15' W 135°28'713.5
2017-Jul-16 11:59N 58°12' W 135°16'15 7.4
2017-Jul-16 10:00N 58°24' W 135°00'1212.4 160 / 171016.0 5.4 12.011.510.4
2017-Jul-16 09:00N 58°36' W 135°06'95 4.8 150 / 171016.0 5.4 12.411.810.4
2017-Jul-15 13:00N 57°06' W 134°06'0 0.0 350 / 51023.010.8 11.811.310.4
2017-Jul-14 16:00N 57°06' W 134°06'3718.7 350 / 51023.010.8 11.811.310.4
2017-Jul-14 14:00N 56°30' W 134°24'20216.8 030 / 81023.010.8 11.210.912.5
2017-Jul-14 02:00N 53°48' W 130°54'1212.2 150 / 151021.810.8 12.711.112.8
2017-Jul-14 01:00N 53°42' W 130°36'2121.5 130 / 141022.010.8 12.711.112.8
2017-Jul-14 00:00N 53°30' W 130°06'15020.3 130 / 141022.010.8 12.711.112.8
2017-Jul-13 16:36N 51°14' W 128°21'220.7
2017-Jul-13 16:30N 51°13' W 128°19'1021.1
2017-Jul-13 16:00N 51°07' W 128°05'1021.1
2017-Jul-13 15:31N 51°01' W 127°51'1121.7
2017-Jul-13 15:01N 50°54' W 127°38'1121.7
2017-Jul-13 14:31N 50°49' W 127°23'1121.0
2017-Jul-13 14:00N 50°45' W 127°08'1120.6
2017-Jul-13 13:29N 50°40' W 126°52'1019.1
2017-Jul-13 12:58N 50°33' W 126°41'715.3
2017-Jul-13 12:30N 50°30' W 126°31'2919.3
2017-Jul-13 11:02N 50°23' W 125°48'018.1
2017-Jul-13 11:00N 50°23' W 125°47'1019.4
2017-Jul-13 10:29N 50°21' W 125°32'715.2
2017-Jul-13 10:00N 50°16' W 125°24'816.9
2017-Jul-13 09:30N 50°08' W 125°21'612.9
2017-Jul-13 09:00N 50°03' W 125°14'612.3
2017-Jul-13 08:30N 49°58' W 125°09'510.8
2017-Jul-13 08:00N 49°54' W 125°04'510.6
2017-Jul-13 07:30N 49°50' W 124°58'511.0
2017-Jul-13 07:00N 49°46' W 124°52'510.9
2017-Jul-13 06:30N 49°42' W 124°46'611.1
2017-Jul-13 06:00N 49°38' W 124°41'611.2
2017-Jul-13 05:30N 49°34' W 124°35'611.3
2017-Jul-13 05:00N 49°30' W 124°29'510.8
2017-Jul-13 04:30N 49°27' W 124°22'511.0
2017-Jul-13 04:00N 49°25' W 124°14'510.9
2017-Jul-13 03:30N 49°23' W 124°06'611.2
2017-Jul-13 03:00N 49°22' W 123°58'610.7
2017-Jul-13 02:29N 49°21' W 123°49'510.7
2017-Jul-13 02:00N 49°20' W 123°42'610.9
2017-Jul-13 01:30N 49°19' W 123°33'510.8
2017-Jul-13 01:00N 49°19' W 123°25'180.2
2017-Jul-13 01:00N 49°18' W 123°24'510.1 210 / 61014.810.8 19.214.518.8
2017-Jul-13 00:30N 49°19' W 123°17'511.0
2017-Jul-13 00:00N 49°19' W 123°08'2 3.6
2017-Jul-12 23:29N 49°17' W 123°07'0 0.0
2017-Jul-12 22:59N 49°17' W 123°07'0 0.0
2017-Jul-12 22:29N 49°17' W 123°07'0 0.0
2017-Jul-12 21:59N 49°17' W 123°07'0 0.0
2017-Jul-12 21:29N 49°17' W 123°07'0 0.0
2017-Jul-12 20:59N 49°17' W 123°07'0 0.0
2017-Jul-12 20:29N 49°17' W 123°07'0 0.0
2017-Jul-12 19:59N 49°17' W 123°07'0 0.0
2017-Jul-12 19:29N 49°17' W 123°07'0 0.0
2017-Jul-12 18:59N 49°17' W 123°07'0 0.0
2017-Jul-12 18:29N 49°17' W 123°07'0 0.0
2017-Jul-12 17:59N 49°17' W 123°07'0 0.0
2017-Jul-12 17:29N 49°17' W 123°07'0 0.0
2017-Jul-12 16:59N 49°17' W 123°07'0 0.0
2017-Jul-12 16:29N 49°17' W 123°07'0 0.0
2017-Jul-12 15:59N 49°17' W 123°07'0 0.0
2017-Jul-12 15:29N 49°17' W 123°07'0 0.0
2017-Jul-12 14:59N 49°17' W 123°07'0 0.0
2017-Jul-12 14:00N 49°17' W 123°07'0 0.6
2017-Jul-12 13:30N 49°18' W 123°07'3 6.9
2017-Jul-12 13:00N 49°19' W 123°11'4 8.8
2017-Jul-12 12:30N 49°19' W 123°18'510.5
2017-Jul-12 12:00N 49°19' W 123°26'510.5
2017-Jul-12 11:29N 49°19' W 123°35'510.5
2017-Jul-12 11:00N 49°20' W 123°42'510.0
2017-Jul-12 10:30N 49°20' W 123°50'3 6.7
2017-Jul-12 10:00N 49°18' W 123°54'41873.7 240 / 71015.110.8 17.612.314.9
2017-Jul-12 09:59N 49°21' W 123°57'510.0
2017-Jul-12 09:30N 49°23' W 124°05'713.0
2017-Jul-12 09:00N 49°18' W 124°12'643.7 240 / 71015.110.8 17.612.314.9
2017-Jul-12 08:51N 49°24' W 124°15'310.0
2017-Jul-12 08:30N 49°26' W 124°19'3 6.8
2017-Jul-12 08:00N 49°24' W 124°24'51256.5 090 / 141015.110.8 17.612.314.9
2017-Jul-12 07:59N 49°28' W 124°27'510.3
2017-Jul-12 07:30N 49°32' W 124°32'510.1
2017-Jul-12 07:00N 49°36' W 124°37'510.3
2017-Jul-12 06:30N 49°40' W 124°42'510.2
2017-Jul-12 06:00N 49°43' W 124°47'510.3
2017-Jul-12 05:30N 49°47' W 124°53'510.2
2017-Jul-12 05:00N 49°51' W 124°58'510.5
2017-Jul-12 04:30N 49°55' W 125°04'510.4
2017-Jul-12 04:00N 49°58' W 125°10'612.0
2017-Jul-12 03:30N 50°03' W 125°14'612.7
2017-Jul-12 03:00N 50°08' W 125°21'815.5
2017-Jul-12 02:30N 50°15' W 125°24'713.8
2017-Jul-12 01:59N 50°21' W 125°31'917.5
2017-Jul-12 01:26N 50°22' W 125°45'2518.0
2017-Jul-12 00:02N 50°30' W 126°23'218.9
2017-Jul-11 23:56N 50°30' W 126°26'918.2
2017-Jul-11 23:26N 50°32' W 126°40'715.6
2017-Jul-11 23:00N 50°34' W 126°51'5 9.7
2017-Jul-11 22:29N 50°35' W 126°58'714.4
2017-Jul-11 22:00N 50°37' W 127°08'917.1
2017-Jul-11 21:30N 50°43' W 127°18'918.1
2017-Jul-11 21:00N 50°50' W 127°28'918.3
2017-Jul-11 20:30N 50°55' W 127°40'918.0
2017-Jul-11 20:00N 51°01' W 127°51'917.9
2017-Jul-11 19:30N 51°05' W 128°03'917.8
2017-Jul-11 19:00N 51°10' W 128°15'816.8
2017-Jul-11 18:31N 51°17' W 128°22'917.4
2017-Jul-11 18:01N 51°26' W 128°26'2120.5
2017-Jul-11 18:00N 51°24' W 128°24'1021.4 160 / 201019.810.8 13.611.514.9
2017-Jul-11 17:30N 51°34' W 128°30'917.2
2017-Jul-11 17:00N 51°42' W 128°33'917.1
2017-Jul-11 16:30N 51°50' W 128°38'816.8
2017-Jul-11 16:00N 51°57' W 128°46'917.0
2017-Jul-11 15:30N 52°03' W 128°55'918.2
2017-Jul-11 15:00N 52°07' W 129°09'918.2
2017-Jul-11 14:30N 52°11' W 129°22'6217.6
2017-Jul-11 11:00N 53°00' W 130°24'2121.0 160 / 251018.110.8 13.411.614.0
2017-Jul-11 10:00N 53°18' W 130°42'1818.4 160 / 251018.810.8 13.811.514.0
2017-Jul-11 09:00N 53°36' W 130°48'6716.9 160 / 251018.810.8 13.811.514.0
2017-Jul-11 05:00N 54°42' W 131°12'   170 / 91019.010.8 12.8 9.814.0
Track history (hours):
 
Tides and Currents Weather Stations Pressure Air Temp Water Temp Dewpoint Dewpoint Depression Visibility Wind Speed Wind Dir Waves Ship Positions

Volendam

Operator: Holland America Line

Last reported at 2017-Jul-20 19:00 UTC. Time now 2017-Jul-21 02:28 UTC.
Position N 53°00' W 129°12'.

Type: Ship. MMSI: 245968000.

Wind from 170 at 10 knots

Barometer 1018.8 mb
Air temperature 13.6 ° C
Visibility: greater than 10.8 NM
Dewpoint 12.0 ° C
Water temperature 16.1 ° C

Date/timePositionNaut miles runAvg speedWind from/ knotsBaromVisibWave heightAir tempDewpointWater temp
2017-Jul-20 19:00N 53°00' W 129°12'1614.8 170 / 101018.810.8 13.612.016.1
2017-Jul-20 17:53N 52°44' W 129°05'717.8
2017-Jul-20 17:30N 52°39' W 128°58'815.8
2017-Jul-20 17:00N 52°32' W 128°52'816.6
2017-Jul-20 16:31N 52°24' W 128°50'918.8
2017-Jul-20 16:00N 52°14' W 128°47'9551.1
2017-Jul-20 16:00N 52°06' W 128°42'2 3.7 330 / 51017.510.8 14.312.317.9
2017-Jul-20 15:30N 52°05' W 128°44'918.3
2017-Jul-20 15:00N 51°56' W 128°40'1918.6
2017-Jul-20 14:00N 51°38' W 128°32'3163.9
2017-Jul-20 14:00N 51°36' W 128°30'713.9 340 / 101018.010.8 14.312.317.4
2017-Jul-20 13:30N 51°29' W 128°29'918.2
2017-Jul-20 13:00N 51°21' W 128°25'5317.4
2017-Jul-20 13:00N 51°18' W 128°18'611.4 330 / 151018.610.8 14.512.517.7
2017-Jul-20 12:30N 51°13' W 128°19'918.6
2017-Jul-20 12:00N 51°07' W 128°06'918.7
2017-Jul-20 11:31N 51°02' W 127°54'1019.5
2017-Jul-20 11:00N 50°56' W 127°41'4253.6
2017-Jul-20 11:00N 50°54' W 127°36'612.0 270 / 181016.610.8 13.211.313.8
2017-Jul-20 10:30N 50°50' W 127°29'1019.2
2017-Jul-20 10:00N 50°47' W 127°15'5300.2
2017-Jul-20 10:00N 50°42' W 127°12'714.8 270 / 91016.610.8 13.211.313.8
2017-Jul-20 09:30N 50°43' W 127°01'918.2
2017-Jul-20 09:00N 50°39' W 126°48'816.0
2017-Jul-20 08:29N 50°32' W 126°41'816.9
2017-Jul-20 08:00N 50°30' W 126°28'917.9
2017-Jul-20 07:30N 50°29' W 126°14'1816.8
2017-Jul-20 06:27N 50°23' W 125°48'817.4
2017-Jul-20 05:59N 50°22' W 125°35'714.8
2017-Jul-20 05:30N 50°20' W 125°25'917.6
2017-Jul-20 05:00N 50°11' W 125°22'613.0
2017-Jul-20 04:30N 50°05' W 125°17'713.4
2017-Jul-20 04:01N 49°60' W 125°12'918.5
2017-Jul-20 03:31N 49°54' W 125°01'1020.2
2017-Jul-20 03:00N 49°47' W 124°49'1020.4
2017-Jul-20 02:30N 49°41' W 124°36'1020.7
2017-Jul-20 02:00N 49°34' W 124°24'1020.1
2017-Jul-20 01:30N 49°30' W 124°10'1020.6
2017-Jul-20 01:01N 49°26' W 123°56'2130.6
2017-Jul-20 01:00N 49°24' W 123°54'918.6 090 / 71014.610.8 19.214.020.9
2017-Jul-20 00:31N 49°23' W 123°40'1020.4
2017-Jul-20 00:01N 49°19' W 123°25'2105.9
2017-Jul-20 00:00N 49°18' W 123°24'918.4 190 / 31015.610.8 19.413.322.5
2017-Jul-19 23:30N 49°19' W 123°10'3 5.9
2017-Jul-19 23:00N 49°17' W 123°07'0 0.0
2017-Jul-19 22:30N 49°17' W 123°07'0 0.0
2017-Jul-19 22:00N 49°17' W 123°07'0 0.0
2017-Jul-19 21:30N 49°17' W 123°07'0 0.0
2017-Jul-19 20:57N 49°17' W 123°07'0 0.0
2017-Jul-19 20:30N 49°17' W 123°07'0 0.0
2017-Jul-19 20:00N 49°17' W 123°07'0 0.0
2017-Jul-19 19:30N 49°17' W 123°07'0 0.0
2017-Jul-19 19:00N 49°17' W 123°07'0 0.0
2017-Jul-19 18:30N 49°17' W 123°07'0 0.0
2017-Jul-19 18:00N 49°17' W 123°07'0 0.0
2017-Jul-19 17:30N 49°17' W 123°07'0 0.0
2017-Jul-19 17:00N 49°17' W 123°07'0 0.0
2017-Jul-19 16:30N 49°17' W 123°07'0 0.0
2017-Jul-19 16:00N 49°17' W 123°07'0 0.0
2017-Jul-19 15:30N 49°17' W 123°07'0 0.0
2017-Jul-19 15:00N 49°17' W 123°07'0 0.0
2017-Jul-19 14:30N 49°17' W 123°07'0 0.0
2017-Jul-19 14:00N 49°17' W 123°07'1 2.4
2017-Jul-19 13:30N 49°18' W 123°07'5 9.5
2017-Jul-19 13:00N 49°19' W 123°15'510.7
2017-Jul-19 12:30N 49°18' W 123°23'611.2
2017-Jul-19 12:00N 49°19' W 123°32'510.8
2017-Jul-19 11:30N 49°19' W 123°40'510.5
2017-Jul-19 11:00N 49°20' W 123°48'4443.9
2017-Jul-19 11:00N 49°18' W 123°42'1019.8 120 / 241016.010.8 18.413.716.0
2017-Jul-19 10:30N 49°22' W 123°56'510.7
2017-Jul-19 10:00N 49°23' W 124°04'5546.3
2017-Jul-19 10:00N 49°18' W 124°00'1019.0 110 / 81016.010.8 19.415.516.0
2017-Jul-19 09:29N 49°24' W 124°11'5 9.9
2017-Jul-19 09:00N 49°25' W 124°18'1136.5
2017-Jul-19 09:00N 49°24' W 124°18'612.0 060 / 71015.710.8 19.813.516.0
2017-Jul-19 08:30N 49°28' W 124°25'510.2
2017-Jul-19 08:00N 49°31' W 124°31'5 9.5
2017-Jul-19 07:30N 49°34' W 124°36'5 9.6
2017-Jul-19 07:00N 49°38' W 124°41'5 9.6
2017-Jul-19 06:30N 49°42' W 124°46'5 9.3
2017-Jul-19 06:00N 49°45' W 124°51'5 9.7
2017-Jul-19 05:30N 49°49' W 124°56'5 9.6
2017-Jul-19 05:00N 49°52' W 125°01'5 9.3
2017-Jul-19 04:30N 49°55' W 125°06'510.7
2017-Jul-19 04:01N 49°59' W 125°12'713.9
2017-Jul-19 03:30N 50°05' W 125°17'612.7
2017-Jul-19 03:00N 50°11' W 125°22'714.0
2017-Jul-19 02:30N 50°18' W 125°25'612.2
2017-Jul-19 02:00N 50°21' W 125°32'612.8
2017-Jul-19 01:30N 50°22' W 125°42'1614.3
2017-Jul-19 00:21N 50°28' W 126°06'513.9
2017-Jul-19 00:00N 50°24' W 126°12'5555.0 290 / 221015.410.8 20.513.713.1
2017-Jul-18 23:59N 50°29' W 126°15'714.1
2017-Jul-18 23:30N 50°30' W 126°25'713.5
2017-Jul-18 22:59N 50°31' W 126°36'612.3
2017-Jul-18 22:30N 50°35' W 126°42'713.7
2017-Jul-18 22:00N 50°39' W 126°51'917.2
2017-Jul-18 21:30N 50°43' W 127°03'917.8
2017-Jul-18 21:01N 50°47' W 127°15'2115.7
2017-Jul-18 21:00N 50°48' W 127°18'714.8 1018.010.8 13.812.714.3
2017-Jul-18 20:31N 50°50' W 127°29'917.6
2017-Jul-18 20:01N 50°55' W 127°40'918.0
2017-Jul-18 19:30N 51°01' W 127°51'918.2
2017-Jul-18 19:00N 51°06' W 128°03'917.4
2017-Jul-18 18:31N 51°11' W 128°15'918.0
2017-Jul-18 18:01N 51°18' W 128°23'1019.1
2017-Jul-18 17:31N 51°28' W 128°27'1019.4
2017-Jul-18 17:01N 51°37' W 128°31'1019.5
2017-Jul-18 16:31N 51°46' W 128°35'1019.5
2017-Jul-18 16:01N 51°55' W 128°43'166.8
2017-Jul-18 16:00N 51°54' W 128°42'1122.1 350 / 121019.010.8 14.013.015.7
2017-Jul-18 15:31N 52°02' W 128°53'918.8
2017-Jul-18 15:00N 52°06' W 129°07'8508.4
2017-Jul-18 15:00N 52°00' W 129°00'2625.9 350 / 121019.210.8 13.813.015.7
2017-Jul-18 14:00N 52°15' W 129°34'11792.3
2017-Jul-18 14:00N 52°06' W 129°24'2042.1 330 / 211020.510.8 14.013.015.7
2017-Jul-18 13:31N 52°23' W 129°42'815.2
2017-Jul-18 13:00N 52°30' W 129°48'3718.5 330 / 211020.510.8 14.013.015.7
2017-Jul-18 11:00N 53°00' W 130°24'3316.6 330 / 211021.010.8 13.513.015.7
2017-Jul-18 09:00N 53°30' W 130°48'135 7.5 320 / 201022.310.8 12.912.615.7
2017-Jul-17 15:00N 55°36' W 132°12'5911.8 070 / 51027.010.8 12.311.815.7
2017-Jul-17 10:00N 56°06' W 133°42'5212.9 180 / 31026.010.8 11.110.912.8
2017-Jul-17 06:00N 56°48' W 134°36'3618.1 160 / 251025.010.8 11.110.812.8
2017-Jul-17 04:00N 57°24' W 134°42'3618.1 210 / 161024.010.8 12.111.314.8
2017-Jul-17 02:00N 58°00' W 134°48'1418.3 100 / 171022.610.8 12.612.315.2
2017-Jul-17 01:14N 58°08' W 135°10'418.0
2017-Jul-17 01:00N 58°10' W 135°17'4382.8
2017-Jul-17 01:00N 58°06' W 135°12'1326.7 050 / 71022.510.8 12.612.115.2
2017-Jul-17 00:30N 58°14' W 135°31'917.9
2017-Jul-17 00:01N 58°18' W 135°46'815.7
2017-Jul-16 23:30N 58°23' W 135°58'510.3
2017-Jul-16 23:00N 58°28' W 136°02'917.4
2017-Jul-16 22:30N 58°36' W 136°05'917.5
2017-Jul-16 22:00N 58°43' W 136°15'2165.9
2017-Jul-16 22:00N 58°42' W 136°12'817.5 280 / 61021.010.8 10.0 9.516.7
2017-Jul-16 21:30N 58°48' W 136°24'713.9
2017-Jul-16 21:00N 58°52' W 136°34'1 0.2
2017-Jul-16 16:14N 58°52' W 136°36'415.3
2017-Jul-16 15:57N 58°50' W 136°29'613.0
2017-Jul-16 15:30N 58°46' W 136°20'714.2
2017-Jul-16 15:00N 58°41' W 136°11'917.3
2017-Jul-16 14:30N 58°33' W 136°03'815.9
2017-Jul-16 14:00N 58°25' W 135°59'611.6
2017-Jul-16 13:30N 58°20' W 135°56'815.0
2017-Jul-16 13:00N 58°18' W 135°42'815.5
2017-Jul-16 12:30N 58°15' W 135°28'713.5
2017-Jul-16 11:59N 58°12' W 135°16'15 7.4
2017-Jul-16 10:00N 58°24' W 135°00'1212.4 160 / 171016.0 5.4 12.011.510.4
2017-Jul-16 09:00N 58°36' W 135°06'95 4.8 150 / 171016.0 5.4 12.411.810.4
2017-Jul-15 13:00N 57°06' W 134°06'0 0.0 350 / 51023.010.8 11.811.310.4
2017-Jul-14 16:00N 57°06' W 134°06'3718.7 350 / 51023.010.8 11.811.310.4
2017-Jul-14 14:00N 56°30' W 134°24'20216.8 030 / 81023.010.8 11.210.912.5
2017-Jul-14 02:00N 53°48' W 130°54'1212.2 150 / 151021.810.8 12.711.112.8
2017-Jul-14 01:00N 53°42' W 130°36'2121.5 130 / 141022.010.8 12.711.112.8
2017-Jul-14 00:00N 53°30' W 130°06'15020.3 130 / 141022.010.8 12.711.112.8
2017-Jul-13 16:36N 51°14' W 128°21'220.7
2017-Jul-13 16:30N 51°13' W 128°19'1021.1
2017-Jul-13 16:00N 51°07' W 128°05'1021.1
2017-Jul-13 15:31N 51°01' W 127°51'1121.7
2017-Jul-13 15:01N 50°54' W 127°38'1121.7
2017-Jul-13 14:31N 50°49' W 127°23'1121.0
2017-Jul-13 14:00N 50°45' W 127°08'1120.6
2017-Jul-13 13:29N 50°40' W 126°52'1019.1
2017-Jul-13 12:58N 50°33' W 126°41'715.3
2017-Jul-13 12:30N 50°30' W 126°31'2919.3
2017-Jul-13 11:02N 50°23' W 125°48'018.1
2017-Jul-13 11:00N 50°23' W 125°47'1019.4
2017-Jul-13 10:29N 50°21' W 125°32'715.2
2017-Jul-13 10:00N 50°16' W 125°24'816.9
2017-Jul-13 09:30N 50°08' W 125°21'612.9
2017-Jul-13 09:00N 50°03' W 125°14'612.3
2017-Jul-13 08:30N 49°58' W 125°09'510.8
2017-Jul-13 08:00N 49°54' W 125°04'510.6
2017-Jul-13 07:30N 49°50' W 124°58'511.0
2017-Jul-13 07:00N 49°46' W 124°52'510.9
2017-Jul-13 06:30N 49°42' W 124°46'611.1
2017-Jul-13 06:00N 49°38' W 124°41'611.2
2017-Jul-13 05:30N 49°34' W 124°35'611.3
2017-Jul-13 05:00N 49°30' W 124°29'510.8
2017-Jul-13 04:30N 49°27' W 124°22'511.0
2017-Jul-13 04:00N 49°25' W 124°14'510.9
2017-Jul-13 03:30N 49°23' W 124°06'611.2
2017-Jul-13 03:00N 49°22' W 123°58'610.7
2017-Jul-13 02:29N 49°21' W 123°49'510.7
2017-Jul-13 02:00N 49°20' W 123°42'610.9
2017-Jul-13 01:30N 49°19' W 123°33'510.8
2017-Jul-13 01:00N 49°19' W 123°25'180.2
2017-Jul-13 01:00N 49°18' W 123°24'510.1 210 / 61014.810.8 19.214.518.8
2017-Jul-13 00:30N 49°19' W 123°17'511.0
2017-Jul-13 00:00N 49°19' W 123°08'2 3.6
2017-Jul-12 23:29N 49°17' W 123°07'0 0.0
2017-Jul-12 22:59N 49°17' W 123°07'0 0.0
2017-Jul-12 22:29N 49°17' W 123°07'0 0.0
2017-Jul-12 21:59N 49°17' W 123°07'0 0.0
2017-Jul-12 21:29N 49°17' W 123°07'0 0.0
2017-Jul-12 20:59N 49°17' W 123°07'0 0.0
2017-Jul-12 20:29N 49°17' W 123°07'0 0.0
2017-Jul-12 19:59N 49°17' W 123°07'0 0.0
2017-Jul-12 19:29N 49°17' W 123°07'0 0.0
2017-Jul-12 18:59N 49°17' W 123°07'0 0.0
2017-Jul-12 18:29N 49°17' W 123°07'0 0.0
2017-Jul-12 17:59N 49°17' W 123°07'0 0.0
2017-Jul-12 17:29N 49°17' W 123°07'0 0.0
2017-Jul-12 16:59N 49°17' W 123°07'0 0.0
2017-Jul-12 16:29N 49°17' W 123°07'0 0.0
2017-Jul-12 15:59N 49°17' W 123°07'0 0.0
2017-Jul-12 15:29N 49°17' W 123°07'0 0.0
2017-Jul-12 14:59N 49°17' W 123°07'0 0.0
2017-Jul-12 14:00N 49°17' W 123°07'0 0.6
2017-Jul-12 13:30N 49°18' W 123°07'3 6.9
2017-Jul-12 13:00N 49°19' W 123°11'4 8.8
2017-Jul-12 12:30N 49°19' W 123°18'510.5
2017-Jul-12 12:00N 49°19' W 123°26'510.5
2017-Jul-12 11:29N 49°19' W 123°35'510.5
2017-Jul-12 11:00N 49°20' W 123°42'510.0
2017-Jul-12 10:30N 49°20' W 123°50'3 6.7
2017-Jul-12 10:00N 49°18' W 123°54'41873.7 240 / 71015.110.8 17.612.314.9
2017-Jul-12 09:59N 49°21' W 123°57'510.0
2017-Jul-12 09:30N 49°23' W 124°05'713.0
2017-Jul-12 09:00N 49°18' W 124°12'643.7 240 / 71015.110.8 17.612.314.9
2017-Jul-12 08:51N 49°24' W 124°15'310.0
2017-Jul-12 08:30N 49°26' W 124°19'3 6.8
2017-Jul-12 08:00N 49°24' W 124°24'51256.5 090 / 141015.110.8 17.612.314.9
2017-Jul-12 07:59N 49°28' W 124°27'510.3
2017-Jul-12 07:30N 49°32' W 124°32'510.1
2017-Jul-12 07:00N 49°36' W 124°37'510.3
2017-Jul-12 06:30N 49°40' W 124°42'510.2
2017-Jul-12 06:00N 49°43' W 124°47'510.3
2017-Jul-12 05:30N 49°47' W 124°53'510.2
2017-Jul-12 05:00N 49°51' W 124°58'510.5
2017-Jul-12 04:30N 49°55' W 125°04'510.4
2017-Jul-12 04:00N 49°58' W 125°10'612.0
2017-Jul-12 03:30N 50°03' W 125°14'612.7
2017-Jul-12 03:00N 50°08' W 125°21'815.5
2017-Jul-12 02:30N 50°15' W 125°24'713.8
2017-Jul-12 01:59N 50°21' W 125°31'917.5
2017-Jul-12 01:26N 50°22' W 125°45'2518.0
2017-Jul-12 00:02N 50°30' W 126°23'218.9
2017-Jul-11 23:56N 50°30' W 126°26'918.2
2017-Jul-11 23:26N 50°32' W 126°40'715.6
2017-Jul-11 23:00N 50°34' W 126°51'5 9.7
2017-Jul-11 22:29N 50°35' W 126°58'714.4
2017-Jul-11 22:00N 50°37' W 127°08'917.1
2017-Jul-11 21:30N 50°43' W 127°18'918.1
2017-Jul-11 21:00N 50°50' W 127°28'918.3
2017-Jul-11 20:30N 50°55' W 127°40'918.0
2017-Jul-11 20:00N 51°01' W 127°51'917.9
2017-Jul-11 19:30N 51°05' W 128°03'917.8
2017-Jul-11 19:00N 51°10' W 128°15'816.8
2017-Jul-11 18:31N 51°17' W 128°22'917.4
2017-Jul-11 18:01N 51°26' W 128°26'2120.5
2017-Jul-11 18:00N 51°24' W 128°24'1021.4 160 / 201019.810.8 13.611.514.9
2017-Jul-11 17:30N 51°34' W 128°30'917.2
2017-Jul-11 17:00N 51°42' W 128°33'917.1
2017-Jul-11 16:30N 51°50' W 128°38'816.8
2017-Jul-11 16:00N 51°57' W 128°46'917.0
2017-Jul-11 15:30N 52°03' W 128°55'918.2
2017-Jul-11 15:00N 52°07' W 129°09'918.2
2017-Jul-11 14:30N 52°11' W 129°22'6217.6
2017-Jul-11 11:00N 53°00' W 130°24'2121.0 160 / 251018.110.8 13.411.614.0
2017-Jul-11 10:00N 53°18' W 130°42'1818.4 160 / 251018.810.8 13.811.514.0
2017-Jul-11 09:00N 53°36' W 130°48'6716.9 160 / 251018.810.8 13.811.514.0
2017-Jul-11 05:00N 54°42' W 131°12'   170 / 91019.010.8 12.8 9.814.0

Dump ship's entire track history